CheckWX is a tool to help pilots better visualize weather data.  It is not intended as a substitute for an official pre-flight weather briefing.

17:36:58 UTC

HEMM TAF
Mersa Matruh Airport
Mersa Matruh, Egypt
TAF HEMM 281100Z 2812/2918 34014KT 9999 SCT020

May-28@
12:00 UTC

May-28 @ 12:00 UTC

May-29@
18:00 UTC

May-29 @ 18:00 UTC

TAF HEMM 281100Z 2812/2918 34014KT 9999 SCT020
Wind
  • 340° at 14 KTS
Cloud Levels
  • Scattered at 2,000' AGL